Airfield :
LOGIN :

Register | Disclaimer

   EN    FR    IT 

 










Legend :    VFR   Marginal VFR   IFR   Intensive IFR   Very Intensive IFR
Visi :
Ceiling :
>= 8 km
>= 3000ft
5 to 8 km
1000 to 3000 ft
1500m to 5 km
500 to 1000 ft
800 to 1500m
200 to 500 ft
< 800m
< 200 ft
Symbols :   Thunderstorms  Fog  Heavy snow  Heavy precipitations  Wind > 20 kt
SIGMETs :     Misc.  Thunderstorms  Icing  Turbulence  Mountain Waves  Volcanic Ashes







- Airport Elevation : 1299 ft


EDTY - Adolf Würth

CURRENT METAR :
  • 121320Z 24010KT 9999 SCT020 BKN030 OVC048 03/M01 Q1010

EXPIRED METARs :
  • 121250Z 25011KT 9999 FEW021 BKN026 OVC030 03/M01 Q1010
  • 121220Z 25010KT 9999 VCSH SCT022 SCT028 BKN140 03/M01 Q1009
  • 121150Z 25013KT 9999 SCT020 03/M01 Q1009
  • 121120Z 25013KT 9999 BKN020 BKN027 03/M01 Q1009
  • 121050Z 25017KT 9999 VCSH FEW019 BKN023 02/M02 Q1009

TAF TAF EDTY
Valid from the 12 at 12:00 until the 12 at 21:00 UTC


121100Z 1212/1221 25012KT 9999 SCT015 BKN025
TEMPO 1212/1215 4000 -SHSN SCT015TCU
BECMG 1216/1218 23005KT
No reported NOTAMs for that airfield.



MET'MAP, your aeronautical weather chart ! - Copyright ORBIFLY December 2007 - Disclaimer

ORBIFLY MET'MAP TEAM :

Programming & Development : Alexandra Zaïnal
Concept & Development : Baudouin d'Aumeries
Co-Development & Prog : Marc-Olivier Méhu
Technical & hardware support : Manuel Goepfert

Contact : metmap@orbifly.com




SOURCES & CREDITS :

   NOAA